createdAt,value
2022-09-01T00:02:10.441Z,60.67
2022-09-01T00:06:26.693Z,61.25
2022-09-01T00:10:42.859Z,62.34
2022-09-01T00:14:59.368Z,61.63
2022-09-01T00:19:15.582Z,61.74
2022-09-01T00:23:31.607Z,62.15
2022-09-01T00:27:49.664Z,62.84
2022-09-01T00:32:05.925Z,61.85
2022-09-01T00:36:23.334Z,61.92
2022-09-01T00:40:39.594Z,60.74
2022-09-01T00:44:55.600Z,61.18
2022-09-01T00:49:31.498Z,60.47
2022-09-01T00:53:51.625Z,60.73
2022-09-01T00:58:19.684Z,61.81
2022-09-01T01:02:39.084Z,61.87
2022-09-01T01:07:02.356Z,61.96
2022-09-01T01:11:19.383Z,61.88
2022-09-01T01:15:36.699Z,61.84
2022-09-01T01:20:13.506Z,62.32
2022-09-01T01:24:34.890Z,61.19
2022-09-01T01:28:52.188Z,60.34
2022-09-01T01:33:11.867Z,60.86
2022-09-01T01:37:28.128Z,61.21
2022-09-01T01:41:49.035Z,61.45
2022-09-01T01:46:08.354Z,61.04
2022-09-01T01:50:27.490Z,61.05
2022-09-01T01:54:46.266Z,61.51
2022-09-01T01:59:02.341Z,62.80
2022-09-01T02:03:23.139Z,63.27
2022-09-01T02:07:40.370Z,63.82
2022-09-01T02:11:57.438Z,63.50
2022-09-01T02:16:13.723Z,63.42
2022-09-01T02:20:30.010Z,63.94
2022-09-01T02:24:49.325Z,63.02
2022-09-01T02:29:09.315Z,63.96
2022-09-01T02:33:27.694Z,63.89
2022-09-01T02:37:43.800Z,64.23
2022-09-01T02:42:01.464Z,63.68
2022-09-01T02:46:17.761Z,63.34
2022-09-01T02:50:34.290Z,63.81
2022-09-01T02:54:50.897Z,63.63
2022-09-01T02:59:12.081Z,64.97
2022-09-01T03:03:28.833Z,64.55
2022-09-01T03:07:44.839Z,64.78
2022-09-01T03:12:00.897Z,63.71
2022-09-01T03:16:17.086Z,64.36
2022-09-01T03:20:34.598Z,64.41
2022-09-01T03:24:50.752Z,63.24
2022-09-01T03:29:07.045Z,63.14
2022-09-01T03:33:25.296Z,64.00
2022-09-01T03:37:44.428Z,64.36
2022-09-01T03:42:01.393Z,63.69
2022-09-01T03:46:21.698Z,63.55
2022-09-01T03:50:45.104Z,62.95
2022-09-01T03:55:01.116Z,63.32
2022-09-01T03:59:17.538Z,63.06
2022-09-01T04:03:36.161Z,63.66
2022-09-01T04:07:52.652Z,62.96
2022-09-01T04:12:15.862Z,64.11
2022-09-01T04:16:52.937Z,64.94
2022-09-01T04:21:10.624Z,64.88
2022-09-01T04:25:26.923Z,65.82
2022-09-01T04:29:43.107Z,66.45
2022-09-01T04:33:59.180Z,65.68
2022-09-01T04:38:16.322Z,66.13
2022-09-01T04:42:32.787Z,66.17
2022-09-01T04:46:50.874Z,65.93
2022-09-01T04:51:10.703Z,65.63
2022-09-01T04:55:29.800Z,65.80
2022-09-01T04:59:45.963Z,64.98
2022-09-01T05:04:03.890Z,64.66
2022-09-01T05:08:24.329Z,64.10
2022-09-01T05:12:41.391Z,64.57
2022-09-01T05:16:59.048Z,65.27
2022-09-01T05:21:17.679Z,65.47
2022-09-01T05:25:44.177Z,65.60
2022-09-01T05:30:01.382Z,65.77
2022-09-01T05:34:26.519Z,65.83
2022-09-01T05:38:42.986Z,65.43
2022-09-01T05:42:59.501Z,64.61
2022-09-01T05:47:20.579Z,65.11
2022-09-01T05:51:45.736Z,64.83
2022-09-01T05:56:08.024Z,64.93
2022-09-01T06:00:24.116Z,64.29
2022-09-01T06:04:44.371Z,64.17
2022-09-01T06:09:00.481Z,64.68
2022-09-01T06:13:21.863Z,64.17
2022-09-01T06:17:41.836Z,65.01
2022-09-01T06:21:58.065Z,64.35
2022-09-01T06:26:21.634Z,65.23
2022-09-01T06:30:37.754Z,65.04
2022-09-01T06:34:54.016Z,64.54
2022-09-01T06:39:14.360Z,63.10
2022-09-01T06:43:30.961Z,63.67
2022-09-01T06:47:48.304Z,63.72
2022-09-01T06:52:05.015Z,64.55
2022-09-01T06:56:21.005Z,65.93
2022-09-01T07:00:41.936Z,65.81
2022-09-01T07:04:58.483Z,64.75
2022-09-01T07:09:38.788Z,64.60
2022-09-01T07:18:35.185Z,64.84
2022-09-01T07:23:07.613Z,64.13
2022-09-01T07:27:35.606Z,61.88
2022-09-01T07:36:33.159Z,62.22
2022-09-01T07:45:58.070Z,60.53
2022-09-01T07:54:52.078Z,58.95
2022-09-01T07:59:14.760Z,59.23
2022-09-01T08:03:31.531Z,59.70
2022-09-01T08:07:52.261Z,60.13
2022-09-01T08:12:08.998Z,58.12
2022-09-01T08:16:25.636Z,56.81
2022-09-01T08:20:47.504Z,59.15
2022-09-01T08:25:12.468Z,59.56
2022-09-01T08:29:28.454Z,58.14
2022-09-01T08:33:47.478Z,57.54
2022-09-01T08:38:03.527Z,57.62
2022-09-01T08:42:22.977Z,58.06
2022-09-01T08:46:42.450Z,57.27
2022-09-01T08:51:38.357Z,57.08
2022-09-01T08:55:58.512Z,57.81
2022-09-01T09:00:16.750Z,58.17
2022-09-01T09:04:35.853Z,56.29
2022-09-01T09:09:07.989Z,54.22
2022-09-01T09:13:27.202Z,56.15
2022-09-01T09:17:56.058Z,54.03
2022-09-01T09:22:19.411Z,53.65
2022-09-01T09:26:42.970Z,54.96
2022-09-01T09:31:30.336Z,51.87
2022-09-01T09:35:47.457Z,48.04
2022-09-01T09:40:12.416Z,43.83
2022-09-01T09:44:32.944Z,43.98
2022-09-01T09:48:50.622Z,41.87
2022-09-01T09:53:15.844Z,40.40
2022-09-01T09:57:38.227Z,41.19
2022-09-01T10:02:14.985Z,38.61
2022-09-01T10:06:38.406Z,37.31
2022-09-01T10:10:57.787Z,34.71
2022-09-01T10:15:17.440Z,37.01
2022-09-01T10:19:35.918Z,31.69
2022-09-01T10:23:53.011Z,36.26
2022-09-01T10:28:24.323Z,33.34
2022-09-01T10:33:07.973Z,32.52
2022-09-01T10:37:32.080Z,31.15
2022-09-01T10:41:59.418Z,31.48
2022-09-01T10:46:26.738Z,30.37
2022-09-01T10:51:18.364Z,29.34
2022-09-01T10:55:45.436Z,29.43
2022-09-01T11:00:36.166Z,27.84
2022-09-01T11:04:52.814Z,28.53
2022-09-01T11:09:23.382Z,27.82
2022-09-01T11:13:49.060Z,26.91
2022-09-01T11:18:18.984Z,27.81
2022-09-01T11:22:36.254Z,25.96
2022-09-01T11:26:54.077Z,25.19
2022-09-01T11:31:10.048Z,23.81
2022-09-01T11:35:28.568Z,25.67
2022-09-01T11:39:49.353Z,24.36
2022-09-01T11:44:17.731Z,25.43
2022-09-01T11:48:33.901Z,24.73
2022-09-01T11:53:12.167Z,23.08
2022-09-01T11:57:28.728Z,25.62
2022-09-01T12:01:44.905Z,24.79
2022-09-01T12:06:06.442Z,25.97
2022-09-01T12:10:38.574Z,26.08
2022-09-01T12:15:06.495Z,25.27
2022-09-01T12:19:29.296Z,23.52
2022-09-01T12:23:45.502Z,23.75
2022-09-01T12:28:03.491Z,23.28
2022-09-01T12:32:20.198Z,24.07
2022-09-01T12:36:37.504Z,22.16
2022-09-01T12:40:55.727Z,22.32
2022-09-01T12:45:13.416Z,24.66
2022-09-01T12:49:50.042Z,23.39
2022-09-01T12:54:09.403Z,20.31
2022-09-01T12:58:26.862Z,21.17
2022-09-01T13:02:46.637Z,21.76
2022-09-01T13:07:05.378Z,22.03
2022-09-01T13:11:21.544Z,19.76
2022-09-01T13:15:43.158Z,19.92
2022-09-01T13:19:59.329Z,20.19
2022-09-01T13:24:15.416Z,19.78
2022-09-01T13:28:32.219Z,18.62
2022-09-01T13:37:25.580Z,20.43
2022-09-01T13:41:42.389Z,21.87
2022-09-01T13:45:59.085Z,20.89
2022-09-01T13:50:23.690Z,18.69
2022-09-01T13:54:40.547Z,19.92
2022-09-01T13:58:56.573Z,20.53
2022-09-01T14:03:21.031Z,21.49
2022-09-01T14:07:37.658Z,19.12
2022-09-01T14:11:54.842Z,21.56
2022-09-01T14:16:12.546Z,20.95
2022-09-01T14:20:35.135Z,21.69
2022-09-01T14:24:53.486Z,23.26
2022-09-01T14:29:09.623Z,22.51
2022-09-01T14:33:27.378Z,23.69
2022-09-01T14:37:45.746Z,20.68
2022-09-01T14:42:01.803Z,26.09
2022-09-01T14:46:19.429Z,23.66
2022-09-01T14:50:40.183Z,24.38
2022-09-01T14:54:56.324Z,22.12
2022-09-01T14:59:12.653Z,25.10
2022-09-01T15:03:28.774Z,22.58
2022-09-01T15:07:44.993Z,25.17
2022-09-01T15:12:01.266Z,25.75
2022-09-01T15:16:20.556Z,24.76
2022-09-01T15:20:46.994Z,28.08
2022-09-01T15:25:03.169Z,25.17
2022-09-01T15:29:19.424Z,29.34
2022-09-01T15:33:35.497Z,28.08
2022-09-01T15:37:56.151Z,27.53
2022-09-01T15:42:12.696Z,29.97
2022-09-01T15:46:32.913Z,30.15
2022-09-01T15:50:48.968Z,30.43
2022-09-01T15:55:05.181Z,30.79
2022-09-01T15:59:22.024Z,32.26
2022-09-01T16:03:38.171Z,32.48
2022-09-01T16:12:15.434Z,35.08
2022-09-01T16:16:42.652Z,35.39
2022-09-01T16:21:26.570Z,38.32
2022-09-01T16:25:43.050Z,39.04
2022-09-01T16:30:10.324Z,39.74
2022-09-01T16:34:28.483Z,38.70
2022-09-01T16:39:01.714Z,40.68
2022-09-01T16:43:24.449Z,40.64
2022-09-01T16:47:49.341Z,41.63
2022-09-01T16:52:12.354Z,41.35
2022-09-01T16:56:32.922Z,41.49
2022-09-01T17:01:05.874Z,41.82
2022-09-01T17:05:32.215Z,39.85
2022-09-01T17:10:02.924Z,39.08
2022-09-01T17:14:27.941Z,37.91
2022-09-01T17:18:51.310Z,39.75
2022-09-01T17:23:09.116Z,39.50
2022-09-01T17:27:48.586Z,39.62
2022-09-01T17:32:14.101Z,42.24
2022-09-01T17:36:35.350Z,42.83
2022-09-01T17:41:07.157Z,42.82
2022-09-01T17:45:31.066Z,41.24
2022-09-01T17:49:56.018Z,42.62
2022-09-01T17:55:02.486Z,43.49
2022-09-01T17:59:36.772Z,44.72
2022-09-01T18:04:17.403Z,44.68
2022-09-01T18:08:40.798Z,44.17
2022-09-01T18:13:02.377Z,46.35
2022-09-01T18:17:24.478Z,48.47
2022-09-01T18:21:49.301Z,48.82
2022-09-01T18:26:32.458Z,48.75
2022-09-01T18:31:27.431Z,49.84
2022-09-01T18:36:12.536Z,50.50
2022-09-01T18:41:01.734Z,51.54
2022-09-01T18:46:02.859Z,49.13
2022-09-01T18:50:42.585Z,50.45
2022-09-01T18:55:23.863Z,50.23
2022-09-01T18:59:56.645Z,50.54
2022-09-01T19:04:21.511Z,49.77
2022-09-01T19:08:52.934Z,51.16
2022-09-01T19:13:16.391Z,49.72
2022-09-01T19:17:53.920Z,51.53
2022-09-01T19:22:23.495Z,50.43
2022-09-01T19:26:47.609Z,50.87
2022-09-01T19:31:25.196Z,52.54
2022-09-01T19:35:43.397Z,51.92
2022-09-01T19:39:59.493Z,51.31
2022-09-01T19:44:35.726Z,51.71
2022-09-01T19:49:05.828Z,52.20
2022-09-01T19:53:48.848Z,50.02
2022-09-01T19:58:14.109Z,48.94
2022-09-01T20:02:35.016Z,48.74
2022-09-01T20:06:55.353Z,49.31
2022-09-01T20:11:36.350Z,48.99
2022-09-01T20:16:02.138Z,49.06
2022-09-01T20:20:23.231Z,49.13
2022-09-01T20:24:40.044Z,47.63
2022-09-01T20:29:26.241Z,46.30
2022-09-01T20:33:58.500Z,45.03
2022-09-01T20:38:54.285Z,44.20
2022-09-01T20:43:14.892Z,43.96
2022-09-01T20:47:32.045Z,44.12
2022-09-01T20:51:57.844Z,44.00
2022-09-01T20:56:25.513Z,44.99
2022-09-01T21:01:13.126Z,43.20
2022-09-01T21:05:54.699Z,44.31
2022-09-01T21:10:28.215Z,44.57
2022-09-01T21:14:47.229Z,41.90
2022-09-01T21:19:26.804Z,41.31
2022-09-01T21:23:42.813Z,39.77
2022-09-01T21:28:02.416Z,39.95
2022-09-01T21:32:18.547Z,40.68
2022-09-01T21:36:34.561Z,39.29
2022-09-01T21:40:51.339Z,39.21
2022-09-01T21:45:10.874Z,38.92
2022-09-01T21:49:27.163Z,39.35
2022-09-01T21:53:45.194Z,38.12
2022-09-01T21:58:01.487Z,38.18
2022-09-01T22:02:18.346Z,36.88
2022-09-01T22:06:34.571Z,36.16
2022-09-01T22:10:52.299Z,37.57
2022-09-01T22:15:12.947Z,36.27
2022-09-01T22:19:29.291Z,36.50
2022-09-01T22:23:45.644Z,36.16
2022-09-01T22:28:04.272Z,36.67
2022-09-01T22:32:21.730Z,36.81
2022-09-01T22:36:43.814Z,34.91
2022-09-01T22:41:00.516Z,34.02
2022-09-01T22:45:16.732Z,34.70
2022-09-01T22:49:33.022Z,34.88
2022-09-01T22:53:49.567Z,33.77
2022-09-01T22:58:07.741Z,34.20
2022-09-01T23:02:23.920Z,34.33
2022-09-01T23:06:51.819Z,34.46
2022-09-01T23:11:08.813Z,34.08
2022-09-01T23:15:25.029Z,34.46
2022-09-01T23:19:41.134Z,33.29
2022-09-01T23:23:58.958Z,33.41
2022-09-01T23:28:17.058Z,35.21
2022-09-01T23:32:33.426Z,34.15
2022-09-01T23:36:49.613Z,33.99
2022-09-01T23:41:08.770Z,34.63
2022-09-01T23:45:24.853Z,35.02
2022-09-01T23:49:41.831Z,33.76
2022-09-01T23:53:58.414Z,33.69
2022-09-01T23:58:15.349Z,32.81
